createdAt,value
2017-05-08T00:00:09.093Z,4
2017-05-08T00:10:09.009Z,4
2017-05-08T00:20:09.079Z,4
2017-05-08T00:30:09.041Z,4
2017-05-08T00:40:09.086Z,4
2017-05-08T00:50:09.108Z,4
2017-05-08T01:00:09.049Z,4
2017-05-08T01:10:09.233Z,4
2017-05-08T01:20:09.171Z,4
2017-05-08T01:30:09.219Z,4
2017-05-08T01:40:09.085Z,4
2017-05-08T01:50:09.093Z,4
2017-05-08T02:00:09.108Z,4
2017-05-08T02:10:09.150Z,4
2017-05-08T02:20:09.125Z,4
2017-05-08T02:30:09.121Z,4
2017-05-08T02:40:09.118Z,4
2017-05-08T02:50:09.216Z,4
2017-05-08T03:00:09.171Z,4
2017-05-08T03:10:09.239Z,4
2017-05-08T03:20:09.161Z,4
2017-05-08T03:30:09.239Z,12
2017-05-08T03:40:09.188Z,24
2017-05-08T03:50:09.193Z,52
2017-05-08T04:00:09.227Z,116
2017-05-08T04:10:09.219Z,188
2017-05-08T04:20:09.242Z,320
2017-05-08T04:30:09.213Z,428
2017-05-08T04:40:09.209Z,300
2017-05-08T04:50:09.332Z,600
2017-05-08T05:00:09.241Z,828
2017-05-08T05:10:09.254Z,1496
2017-05-08T05:20:09.326Z,1680
2017-05-08T05:30:09.273Z,844
2017-05-08T05:40:09.367Z,1700
2017-05-08T05:50:09.279Z,2164
2017-05-08T06:00:09.301Z,2328
2017-05-08T06:10:09.310Z,2900
2017-05-08T06:20:09.300Z,3332
2017-05-08T06:30:09.316Z,3568
2017-05-08T06:40:09.442Z,3668
2017-05-08T06:50:09.336Z,3404
2017-05-08T07:00:09.422Z,3968
2017-05-08T07:10:09.368Z,4560
2017-05-08T07:20:09.380Z,5188
2017-05-08T07:30:09.545Z,5816
2017-05-08T07:40:09.399Z,5960
2017-05-08T07:50:09.503Z,6760
2017-05-08T08:00:09.560Z,7192
2017-05-08T08:10:09.411Z,7780
2017-05-08T08:20:09.439Z,9676
2017-05-08T08:30:09.492Z,6248
2017-05-08T08:40:09.421Z,8372
2017-05-08T08:50:09.627Z,8408
2017-05-08T09:00:09.437Z,8552
2017-05-08T09:10:09.560Z,8596
2017-05-08T09:20:09.559Z,8512
2017-05-08T09:30:09.577Z,9496
2017-05-08T09:40:25.190Z,11532
2017-05-08T09:50:19.779Z,9220
2017-05-08T10:00:09.612Z,8584
2017-05-08T10:10:09.639Z,8476
2017-05-08T10:20:09.865Z,14396
2017-05-08T10:30:09.571Z,11912
2017-05-08T10:40:09.559Z,23008
2017-05-08T10:50:09.546Z,19808
2017-05-08T11:00:09.743Z,11520
2017-05-08T11:10:09.605Z,7616
2017-05-08T11:20:09.609Z,7532
2017-05-08T11:30:10.663Z,6044
2017-05-08T11:40:09.625Z,7628
2017-05-08T11:50:10.821Z,7464
2017-05-08T12:00:09.645Z,7748
2017-05-08T12:10:09.640Z,6660
2017-05-08T12:20:09.750Z,8380
2017-05-08T12:30:09.659Z,8000
2017-05-08T12:40:09.650Z,5268
2017-05-08T12:50:09.664Z,5404
2017-05-08T13:00:10.734Z,7000
2017-05-08T13:10:09.762Z,6468
2017-05-08T13:20:10.569Z,5556
2017-05-08T13:30:09.733Z,10872
2017-05-08T13:40:09.884Z,8272
2017-05-08T13:50:10.642Z,7524
2017-05-08T14:00:09.973Z,7656
2017-05-08T14:10:09.880Z,9088
2017-05-08T14:20:09.792Z,11072
2017-05-08T14:30:09.961Z,8380
2017-05-08T14:40:09.939Z,15272
2017-05-08T14:50:09.825Z,3680
2017-05-08T15:00:09.809Z,5692
2017-05-08T15:10:09.835Z,3528
2017-05-08T15:20:09.879Z,3860
2017-05-08T15:30:09.835Z,3872
2017-05-08T15:40:09.877Z,8256
2017-05-08T15:50:09.906Z,3640
2017-05-08T16:00:09.900Z,8496
2017-05-08T16:10:10.006Z,5936
2017-05-08T16:20:09.957Z,3788
2017-05-08T16:30:10.006Z,6352
2017-05-08T16:40:09.967Z,6036
2017-05-08T16:50:10.118Z,5300
2017-05-08T17:00:09.932Z,5216
2017-05-08T17:10:09.960Z,2788
2017-05-08T17:20:09.957Z,3596
2017-05-08T17:30:09.973Z,2364
2017-05-08T17:40:10.047Z,2832
2017-05-08T17:50:09.993Z,3264
2017-05-08T18:00:10.005Z,2660
2017-05-08T18:10:10.028Z,1948
2017-05-08T18:20:10.214Z,1584
2017-05-08T18:30:10.031Z,1172
2017-05-08T18:40:10.043Z,1040
2017-05-08T18:50:10.080Z,592
2017-05-08T19:00:10.057Z,328
2017-05-08T19:10:10.051Z,152
2017-05-08T19:20:10.089Z,52
2017-05-08T19:30:10.096Z,20
2017-05-08T19:40:10.145Z,8
2017-05-08T19:50:10.099Z,4
2017-05-08T20:00:10.092Z,4
2017-05-08T20:10:10.159Z,4
2017-05-08T20:20:10.166Z,4
2017-05-08T20:30:10.298Z,4
2017-05-08T20:40:10.289Z,4
2017-05-08T20:50:10.301Z,4
2017-05-08T21:00:10.632Z,4
2017-05-08T21:10:10.636Z,4
2017-05-08T21:20:10.756Z,4
2017-05-08T21:30:10.420Z,4
2017-05-08T21:40:10.274Z,4
2017-05-08T21:50:10.550Z,4
2017-05-08T22:00:10.243Z,4
2017-05-08T22:10:10.277Z,4
2017-05-08T22:20:10.213Z,4
2017-05-08T22:30:10.271Z,4
2017-05-08T22:40:10.270Z,4
2017-05-08T22:50:10.381Z,4
2017-05-08T23:00:10.275Z,4
2017-05-08T23:10:10.256Z,4
2017-05-08T23:20:10.227Z,4
2017-05-08T23:30:10.280Z,4
2017-05-08T23:40:10.244Z,4
2017-05-08T23:50:10.359Z,4
